createdAt,value
2024-02-02T00:01:50.325Z,74.12
2024-02-02T00:04:20.816Z,74.71
2024-02-02T00:06:51.411Z,74.65
2024-02-02T00:09:21.971Z,74.56
2024-02-02T00:11:54.148Z,73.96
2024-02-02T00:14:24.719Z,73.74
2024-02-02T00:16:55.533Z,73.20
2024-02-02T00:19:26.142Z,72.67
2024-02-02T00:21:56.761Z,72.83
2024-02-02T00:24:27.388Z,71.53
2024-02-02T00:26:59.732Z,70.09
2024-02-02T00:29:30.357Z,68.44
2024-02-02T00:32:00.979Z,68.81
2024-02-02T00:34:31.718Z,68.86
2024-02-02T00:37:02.321Z,69.61
2024-02-02T00:39:33.258Z,69.50
2024-02-02T00:42:05.726Z,69.45
2024-02-02T00:44:36.303Z,70.45
2024-02-02T00:47:06.864Z,70.68
2024-02-02T00:49:37.450Z,70.72
2024-02-02T00:52:08.430Z,70.38
2024-02-02T00:54:39.000Z,69.78
2024-02-02T00:57:11.171Z,68.25
2024-02-02T00:59:41.797Z,68.21
2024-02-02T01:02:12.245Z,68.38
2024-02-02T01:04:57.860Z,67.92
2024-02-02T01:07:28.531Z,67.40
2024-02-02T01:09:59.059Z,67.15
2024-02-02T01:12:31.302Z,66.97
2024-02-02T01:15:01.942Z,66.93
2024-02-02T01:17:33.296Z,66.65
2024-02-02T01:20:05.992Z,67.01
2024-02-02T01:22:36.788Z,67.09
2024-02-02T01:25:08.032Z,66.71
2024-02-02T01:27:40.773Z,66.64
2024-02-02T01:30:13.869Z,65.70
2024-02-02T01:32:44.655Z,65.41
2024-02-02T01:35:15.204Z,66.22
2024-02-02T01:37:45.785Z,66.46
2024-02-02T01:40:16.985Z,66.72
2024-02-02T01:42:49.357Z,67.01
2024-02-02T01:45:19.994Z,67.10
2024-02-02T01:47:50.586Z,66.31
2024-02-02T01:50:21.188Z,66.93
2024-02-02T01:52:51.856Z,66.87
2024-02-02T01:55:22.423Z,67.16
2024-02-02T01:57:54.765Z,67.35
2024-02-02T02:00:25.554Z,68.20
2024-02-02T02:02:56.254Z,68.74
2024-02-02T02:05:26.938Z,68.76
2024-02-02T02:07:58.033Z,68.86
2024-02-02T02:10:28.697Z,68.43
2024-02-02T02:13:01.019Z,67.79
2024-02-02T02:15:31.813Z,67.95
2024-02-02T02:18:02.492Z,68.22
2024-02-02T02:20:34.031Z,67.54
2024-02-02T02:23:06.404Z,67.15
2024-02-02T02:25:36.902Z,67.18
2024-02-02T02:28:07.863Z,66.87
2024-02-02T02:30:38.506Z,66.78
2024-02-02T02:33:09.347Z,67.60
2024-02-02T02:35:40.112Z,68.98
2024-02-02T02:38:12.236Z,69.08
2024-02-02T02:40:42.749Z,68.54
2024-02-02T02:43:13.297Z,68.53
2024-02-02T02:45:43.820Z,68.53
2024-02-02T02:48:14.525Z,68.28
2024-02-02T02:50:45.172Z,68.62
2024-02-02T02:53:17.512Z,69.26
2024-02-02T02:55:48.031Z,69.45
2024-02-02T02:58:18.616Z,69.23
2024-02-02T03:00:49.472Z,69.49
2024-02-02T03:03:20.105Z,70.05
2024-02-02T03:05:50.833Z,70.65
2024-02-02T03:08:23.090Z,70.70
2024-02-02T03:10:53.569Z,70.55
2024-02-02T03:13:24.114Z,70.85
2024-02-02T03:15:54.656Z,70.78
2024-02-02T03:18:25.496Z,71.51
2024-02-02T03:20:56.179Z,71.77
2024-02-02T03:23:28.479Z,72.26
2024-02-02T03:25:59.091Z,72.38
2024-02-02T03:28:29.661Z,72.79
2024-02-02T03:31:00.271Z,73.52
2024-02-02T03:33:30.931Z,73.69
2024-02-02T03:36:01.627Z,73.45
2024-02-02T03:38:33.821Z,73.63
2024-02-02T03:41:04.372Z,73.94
2024-02-02T03:43:34.882Z,73.73
2024-02-02T03:46:05.443Z,73.98
2024-02-02T03:48:36.109Z,74.06
2024-02-02T03:51:06.935Z,74.34
2024-02-02T03:53:39.148Z,74.59
2024-02-02T03:56:09.934Z,74.33
2024-02-02T03:58:40.404Z,74.31
2024-02-02T04:01:10.942Z,74.60
2024-02-02T04:03:41.602Z,74.86
2024-02-02T04:06:12.218Z,74.71
2024-02-02T04:08:44.528Z,75.11
2024-02-02T04:11:15.164Z,75.26
2024-02-02T04:13:45.737Z,75.63
2024-02-02T04:16:16.279Z,75.72
2024-02-02T04:18:46.903Z,76.15
2024-02-02T04:21:17.515Z,75.96
2024-02-02T04:23:49.906Z,76.00
2024-02-02T04:26:20.500Z,75.69
2024-02-02T04:28:51.319Z,75.66
2024-02-02T04:31:21.879Z,75.90
2024-02-02T04:33:52.661Z,75.87
2024-02-02T04:36:23.308Z,75.23
2024-02-02T04:38:55.524Z,74.94
2024-02-02T04:41:26.145Z,75.15
2024-02-02T04:43:56.718Z,74.95
2024-02-02T04:46:27.907Z,75.42
2024-02-02T04:48:58.732Z,75.32
2024-02-02T04:51:29.467Z,75.48
2024-02-02T04:54:01.758Z,76.22
2024-02-02T04:56:32.337Z,76.84
2024-02-02T04:59:02.925Z,77.10
2024-02-02T05:01:33.518Z,77.63
2024-02-02T05:04:04.106Z,77.51
2024-02-02T05:06:34.844Z,77.64
2024-02-02T05:09:07.469Z,78.16
2024-02-02T05:11:38.002Z,78.50
2024-02-02T05:14:08.860Z,78.97
2024-02-02T05:16:39.469Z,78.93
2024-02-02T05:19:10.147Z,78.84
2024-02-02T05:21:40.848Z,78.92
2024-02-02T05:24:26.212Z,79.36
2024-02-02T05:27:03.834Z,78.04
2024-02-02T05:29:34.878Z,78.02
2024-02-02T05:32:05.426Z,78.24
2024-02-02T05:34:36.186Z,77.55
2024-02-02T05:37:06.927Z,77.12
2024-02-02T05:39:39.126Z,77.19
2024-02-02T05:42:10.151Z,77.33
2024-02-02T05:44:40.673Z,77.67
2024-02-02T05:47:11.186Z,77.79
2024-02-02T05:49:41.971Z,77.19
2024-02-02T05:52:12.837Z,76.77
2024-02-02T05:54:45.102Z,76.30
2024-02-02T05:57:15.689Z,75.74
2024-02-02T05:59:46.246Z,75.60
2024-02-02T06:02:16.785Z,74.95
2024-02-02T06:04:47.386Z,74.71
2024-02-02T06:07:18.208Z,74.10
2024-02-02T06:09:50.613Z,73.84
2024-02-02T06:12:21.223Z,73.74
2024-02-02T06:14:51.924Z,73.59
2024-02-02T06:17:22.474Z,73.10
2024-02-02T06:19:53.166Z,72.95
2024-02-02T06:22:23.875Z,72.58
2024-02-02T06:24:56.119Z,72.68
2024-02-02T06:27:27.361Z,72.70
2024-02-02T06:29:57.957Z,72.91
2024-02-02T06:32:28.532Z,72.79
2024-02-02T06:35:01.060Z,72.57
2024-02-02T06:37:31.948Z,72.23
2024-02-02T06:40:06.001Z,72.20
2024-02-02T06:42:36.626Z,72.56
2024-02-02T06:45:07.887Z,72.48
2024-02-02T06:47:39.338Z,72.35
2024-02-02T06:50:10.436Z,72.46
2024-02-02T06:52:41.011Z,72.56
2024-02-02T06:55:13.667Z,72.66
2024-02-02T06:57:45.959Z,72.31
2024-02-02T07:00:19.529Z,72.19
2024-02-02T07:02:50.879Z,72.52
2024-02-02T07:05:22.121Z,72.30
2024-02-02T07:07:53.611Z,72.06
2024-02-02T07:10:25.835Z,72.25
2024-02-02T07:13:03.755Z,72.58
2024-02-02T07:15:40.420Z,72.86
2024-02-02T07:18:36.325Z,73.15
2024-02-02T07:21:08.962Z,73.51
2024-02-02T07:23:41.551Z,73.40
2024-02-02T07:26:30.272Z,73.59
2024-02-02T07:29:02.449Z,73.38
2024-02-02T07:31:40.370Z,72.72
2024-02-02T07:34:42.167Z,72.31
2024-02-02T07:37:14.617Z,71.87
2024-02-02T07:39:45.157Z,71.69
2024-02-02T07:42:17.355Z,71.99
2024-02-02T07:44:47.962Z,72.26
2024-02-02T07:47:18.502Z,72.75
2024-02-02T07:49:49.092Z,73.40
2024-02-02T07:52:19.642Z,73.94
2024-02-02T07:54:50.157Z,73.51
2024-02-02T07:57:22.285Z,73.81
2024-02-02T07:59:52.928Z,74.28
2024-02-02T08:02:24.686Z,74.23
2024-02-02T08:04:55.358Z,74.45
2024-02-02T08:07:26.163Z,75.86
2024-02-02T08:09:56.752Z,75.50
2024-02-02T08:12:29.086Z,75.95
2024-02-02T08:14:59.718Z,76.32
2024-02-02T08:17:30.357Z,76.15
2024-02-02T08:20:01.060Z,76.67
2024-02-02T08:22:31.672Z,77.11
2024-02-02T08:25:02.201Z,77.48
2024-02-02T08:27:34.350Z,77.86
2024-02-02T08:30:05.266Z,78.18
2024-02-02T08:32:36.069Z,79.34
2024-02-02T08:35:06.971Z,80.03
2024-02-02T08:37:37.930Z,80.42
2024-02-02T08:40:24.430Z,79.96
2024-02-02T08:42:56.659Z,83.58
2024-02-02T08:46:15.364Z,87.14
2024-02-02T08:48:48.373Z,87.68
2024-02-02T08:51:54.769Z,88.23
2024-02-02T08:54:49.919Z,88.07
2024-02-02T08:58:00.839Z,87.82
2024-02-02T09:00:46.064Z,87.42
2024-02-02T09:03:29.359Z,86.90
2024-02-02T09:06:01.339Z,86.31
2024-02-02T09:08:39.853Z,86.25
2024-02-02T09:11:26.158Z,85.43
2024-02-02T09:14:06.215Z,84.74
2024-02-02T09:16:46.413Z,84.12
2024-02-02T09:19:34.836Z,84.08
2024-02-02T09:22:11.633Z,83.44
2024-02-02T09:24:46.346Z,82.84
2024-02-02T09:27:19.003Z,82.43
2024-02-02T09:29:51.527Z,82.45
2024-02-02T09:32:24.165Z,82.35
2024-02-02T09:34:55.351Z,82.25
2024-02-02T09:37:35.394Z,82.51
2024-02-02T09:40:15.998Z,82.45
2024-02-02T09:43:08.341Z,82.60
2024-02-02T09:45:58.464Z,82.45
2024-02-02T09:48:48.066Z,82.71
2024-02-02T09:51:31.047Z,82.76
2024-02-02T09:54:25.336Z,82.70
2024-02-02T09:57:06.291Z,82.62
2024-02-02T09:59:52.841Z,83.00
2024-02-02T10:02:56.522Z,82.89
2024-02-02T10:05:40.965Z,83.19
2024-02-02T10:08:25.878Z,83.29
2024-02-02T10:11:15.451Z,83.17
2024-02-02T10:14:02.083Z,82.95
2024-02-02T10:16:42.307Z,83.01
2024-02-02T10:19:35.654Z,82.85
2024-02-02T10:22:22.354Z,82.96
2024-02-02T10:25:15.648Z,83.06
2024-02-02T10:28:03.143Z,82.91
2024-02-02T10:30:47.392Z,82.94
2024-02-02T10:33:41.221Z,82.58
2024-02-02T10:36:21.767Z,82.12
2024-02-02T10:39:14.350Z,81.74
2024-02-02T10:42:00.933Z,81.74
2024-02-02T10:44:42.287Z,81.84
2024-02-02T10:47:25.838Z,82.45
2024-02-02T10:50:09.724Z,82.64
2024-02-02T10:52:50.079Z,82.57
2024-02-02T10:55:38.892Z,82.18
2024-02-02T10:58:24.959Z,81.77
2024-02-02T11:01:06.963Z,81.29
2024-02-02T11:03:43.170Z,80.86
2024-02-02T11:06:24.913Z,80.82
2024-02-02T11:09:00.409Z,81.22
2024-02-02T11:11:37.610Z,81.70
2024-02-02T11:14:19.041Z,82.08
2024-02-02T11:17:02.845Z,82.55
2024-02-02T11:19:49.204Z,82.44
2024-02-02T11:22:29.336Z,82.17
2024-02-02T11:25:17.926Z,81.55
2024-02-02T11:28:01.113Z,81.67
2024-02-02T11:30:46.891Z,81.87
2024-02-02T11:33:30.808Z,82.14
2024-02-02T11:36:14.306Z,82.36
2024-02-02T11:38:59.153Z,82.43
2024-02-02T11:41:34.301Z,82.31
2024-02-02T11:44:06.737Z,82.18
2024-02-02T11:46:39.167Z,81.61
2024-02-02T11:49:13.719Z,81.13
2024-02-02T11:51:56.180Z,81.14
2024-02-02T11:54:34.969Z,81.04
2024-02-02T11:57:08.226Z,81.33
2024-02-02T11:59:45.444Z,81.77
2024-02-02T12:02:36.865Z,82.08
2024-02-02T12:05:17.357Z,82.38
2024-02-02T12:07:56.619Z,82.80
2024-02-02T12:10:30.904Z,82.91
2024-02-02T12:13:06.375Z,83.06
2024-02-02T12:15:38.835Z,83.05
2024-02-02T12:18:10.610Z,83.38
2024-02-02T12:20:42.096Z,83.06
2024-02-02T12:23:12.746Z,83.07
2024-02-02T12:25:43.522Z,83.39
2024-02-02T12:28:14.403Z,83.76
2024-02-02T12:30:46.590Z,84.24
2024-02-02T12:33:17.309Z,84.98
2024-02-02T12:35:49.936Z,85.77
2024-02-02T12:38:25.186Z,85.82
2024-02-02T12:40:55.830Z,85.99
2024-02-02T12:43:31.035Z,86.17
2024-02-02T12:46:03.239Z,86.06
2024-02-02T12:48:34.014Z,86.33
2024-02-02T12:51:04.664Z,86.44
2024-02-02T12:53:35.202Z,86.67
2024-02-02T12:56:05.791Z,87.01
2024-02-02T12:58:36.572Z,86.98
2024-02-02T13:01:09.200Z,87.42
2024-02-02T13:03:44.296Z,87.78
2024-02-02T13:06:16.329Z,87.42
2024-02-02T13:08:48.367Z,86.42
2024-02-02T13:11:25.877Z,85.87
2024-02-02T13:14:07.025Z,85.99
2024-02-02T13:16:39.927Z,86.11
2024-02-02T13:19:34.529Z,86.15
2024-02-02T13:22:05.190Z,85.18
2024-02-02T13:24:47.005Z,83.78
2024-02-02T13:27:21.890Z,82.71
2024-02-02T13:29:54.537Z,82.51
2024-02-02T13:32:29.155Z,81.43
2024-02-02T13:35:02.610Z,80.14
2024-02-02T13:37:38.450Z,79.67
2024-02-02T13:40:11.703Z,79.27
2024-02-02T13:42:43.442Z,78.11
2024-02-02T13:45:17.257Z,78.02
2024-02-02T13:48:02.056Z,78.02
2024-02-02T13:50:42.428Z,77.97
2024-02-02T13:53:12.927Z,77.83
2024-02-02T13:55:43.773Z,77.30
2024-02-02T13:58:15.522Z,76.50
2024-02-02T14:00:47.316Z,76.79
2024-02-02T14:03:23.323Z,77.33
2024-02-02T14:05:53.795Z,76.89
2024-02-02T14:08:24.317Z,77.46
2024-02-02T14:10:54.837Z,77.48
2024-02-02T14:13:25.441Z,77.34
2024-02-02T14:15:57.351Z,77.30
2024-02-02T14:18:31.139Z,77.73
2024-02-02T14:21:11.913Z,77.49
2024-02-02T14:23:42.482Z,77.27
2024-02-02T14:26:13.350Z,77.06
2024-02-02T14:28:44.182Z,76.43
2024-02-02T14:31:14.748Z,75.94
2024-02-02T14:33:46.898Z,75.16
2024-02-02T14:36:17.550Z,75.48
2024-02-02T14:38:49.430Z,75.45
2024-02-02T14:41:20.226Z,75.32
2024-02-02T14:43:50.721Z,75.94
2024-02-02T14:46:22.989Z,75.67
2024-02-02T14:48:55.177Z,75.94
2024-02-02T14:51:25.625Z,76.22
2024-02-02T14:53:56.180Z,76.15
2024-02-02T14:56:26.894Z,76.82
2024-02-02T14:59:03.289Z,76.74
2024-02-02T15:01:33.921Z,76.40
2024-02-02T15:04:06.226Z,76.52
2024-02-02T15:06:38.744Z,76.87
2024-02-02T15:09:14.751Z,77.61
2024-02-02T15:11:46.238Z,78.22
2024-02-02T15:14:17.150Z,79.02
2024-02-02T15:16:47.722Z,79.42
2024-02-02T15:19:20.097Z,78.63
2024-02-02T15:21:53.464Z,78.24
2024-02-02T15:24:24.234Z,78.36
2024-02-02T15:26:54.773Z,78.32
2024-02-02T15:29:25.810Z,77.54
2024-02-02T15:31:56.216Z,77.50
2024-02-02T15:34:28.849Z,78.15
2024-02-02T15:36:59.661Z,78.96
2024-02-02T15:39:37.454Z,79.58
2024-02-02T15:42:09.639Z,79.42
2024-02-02T15:44:40.978Z,79.49
2024-02-02T15:47:11.560Z,80.13
2024-02-02T15:49:44.155Z,79.73
2024-02-02T15:52:14.794Z,79.66
2024-02-02T15:54:46.092Z,78.81
2024-02-02T15:57:17.035Z,77.84
2024-02-02T15:59:47.595Z,77.22
2024-02-02T16:02:18.207Z,77.55
2024-02-02T16:04:50.412Z,78.25
2024-02-02T16:07:21.146Z,78.81
2024-02-02T16:09:51.706Z,78.50
2024-02-02T16:12:22.270Z,78.26
2024-02-02T16:14:52.857Z,77.57
2024-02-02T16:17:23.389Z,75.98
2024-02-02T16:19:56.673Z,75.63
2024-02-02T16:22:27.470Z,75.91
2024-02-02T16:24:58.005Z,76.35
2024-02-02T16:27:28.524Z,76.88
2024-02-02T16:29:59.322Z,77.93
2024-02-02T16:32:29.915Z,77.55
2024-02-02T16:35:05.118Z,77.14
2024-02-02T16:37:35.657Z,76.20
2024-02-02T16:40:06.290Z,75.47
2024-02-02T16:42:36.970Z,74.89
2024-02-02T16:45:08.664Z,75.32
2024-02-02T16:47:39.511Z,75.77
2024-02-02T16:50:12.463Z,76.13
2024-02-02T16:52:43.499Z,76.22
2024-02-02T16:55:14.053Z,75.87
2024-02-02T16:57:44.669Z,76.22
2024-02-02T17:00:16.086Z,77.10
2024-02-02T17:02:47.080Z,77.33
2024-02-02T17:05:19.345Z,77.49
2024-02-02T17:07:50.166Z,77.78
2024-02-02T17:10:20.730Z,78.30
2024-02-02T17:12:51.307Z,78.55
2024-02-02T17:15:21.984Z,78.90
2024-02-02T17:17:52.635Z,79.11
2024-02-02T17:20:26.973Z,79.23
2024-02-02T17:22:57.590Z,78.94
2024-02-02T17:25:28.157Z,78.82
2024-02-02T17:27:58.705Z,78.70
2024-02-02T17:30:29.237Z,78.68
2024-02-02T17:33:00.095Z,78.31
2024-02-02T17:35:37.961Z,77.73
2024-02-02T17:38:16.082Z,78.07
2024-02-02T17:40:48.136Z,78.45
2024-02-02T17:43:19.016Z,78.50
2024-02-02T17:45:49.958Z,79.04
2024-02-02T17:48:20.769Z,79.22
2024-02-02T17:50:53.310Z,78.79
2024-02-02T17:53:23.822Z,78.76
2024-02-02T17:55:54.290Z,78.39
2024-02-02T17:58:24.754Z,78.32
2024-02-02T18:00:55.273Z,78.32
2024-02-02T18:03:26.082Z,77.54
2024-02-02T18:05:58.239Z,78.32
2024-02-02T18:08:30.327Z,79.36
2024-02-02T18:11:00.973Z,79.49
2024-02-02T18:13:31.544Z,79.33
2024-02-02T18:16:02.072Z,79.77
2024-02-02T18:18:32.784Z,79.32
2024-02-02T18:21:04.952Z,79.08
2024-02-02T18:23:36.673Z,79.76
2024-02-02T18:26:07.639Z,80.61
2024-02-02T18:28:38.528Z,81.25
2024-02-02T18:31:09.100Z,81.90
2024-02-02T18:33:40.671Z,81.92
2024-02-02T18:36:13.166Z,81.92
2024-02-02T18:38:43.739Z,81.49
2024-02-02T18:41:14.177Z,81.68
2024-02-02T18:43:44.642Z,81.59
2024-02-02T18:46:15.087Z,81.13
2024-02-02T18:48:45.646Z,80.26
2024-02-02T18:51:20.888Z,80.15
2024-02-02T18:53:51.550Z,80.50
2024-02-02T18:56:21.999Z,81.09
2024-02-02T18:58:52.573Z,81.65
2024-02-02T19:01:27.045Z,82.26
2024-02-02T19:03:57.758Z,82.78
2024-02-02T19:06:29.999Z,83.30
2024-02-02T19:09:00.603Z,83.57
2024-02-02T19:11:31.182Z,83.08
2024-02-02T19:14:01.786Z,82.81
2024-02-02T19:16:32.383Z,82.44
2024-02-02T19:19:02.877Z,82.21
2024-02-02T19:21:36.373Z,82.51
2024-02-02T19:24:07.686Z,83.18
2024-02-02T19:26:38.306Z,82.73
2024-02-02T19:29:08.893Z,82.57
2024-02-02T19:31:40.971Z,82.54
2024-02-02T19:34:11.755Z,82.39
2024-02-02T19:36:43.934Z,81.87
2024-02-02T19:39:14.621Z,80.77
2024-02-02T19:41:45.629Z,79.89
2024-02-02T19:44:16.118Z,79.70
2024-02-02T19:46:46.662Z,78.71
2024-02-02T19:49:17.424Z,78.44
2024-02-02T19:51:49.931Z,78.29
2024-02-02T19:54:20.749Z,77.96
2024-02-02T19:56:51.220Z,76.89
2024-02-02T19:59:21.764Z,76.74
2024-02-02T20:01:52.324Z,76.86
2024-02-02T20:04:22.911Z,76.37
2024-02-02T20:06:55.050Z,75.64
2024-02-02T20:09:25.770Z,74.39
2024-02-02T20:11:56.896Z,73.10
2024-02-02T20:14:27.464Z,72.23
2024-02-02T20:16:57.919Z,71.34
2024-02-02T20:19:28.570Z,70.99
2024-02-02T20:22:00.835Z,70.87
2024-02-02T20:24:31.324Z,71.04
2024-02-02T20:27:01.907Z,70.78
2024-02-02T20:29:32.500Z,71.06
2024-02-02T20:32:04.503Z,71.96
2024-02-02T20:34:35.547Z,72.59
2024-02-02T20:37:08.050Z,72.80
2024-02-02T20:39:40.336Z,73.11
2024-02-02T20:42:11.173Z,73.28
2024-02-02T20:44:44.859Z,72.93
2024-02-02T20:47:15.835Z,73.16
2024-02-02T20:49:48.308Z,72.56
2024-02-02T20:52:21.464Z,72.81
2024-02-02T20:54:52.213Z,73.48
2024-02-02T20:57:22.765Z,75.21
2024-02-02T20:59:55.105Z,76.11
2024-02-02T21:02:25.688Z,75.86
2024-02-02T21:04:56.225Z,76.66
2024-02-02T21:07:28.491Z,77.60
2024-02-02T21:09:59.080Z,77.77
2024-02-02T21:12:31.198Z,77.08
2024-02-02T21:15:01.926Z,77.70
2024-02-02T21:17:34.006Z,78.29
2024-02-02T21:20:05.034Z,78.22
2024-02-02T21:22:39.596Z,78.90
2024-02-02T21:25:11.203Z,79.18
2024-02-02T21:27:41.698Z,79.71
2024-02-02T21:30:13.077Z,79.86
2024-02-02T21:32:43.731Z,79.46
2024-02-02T21:35:14.556Z,79.06
2024-02-02T21:37:46.781Z,78.61
2024-02-02T21:40:17.371Z,79.01
2024-02-02T21:42:47.875Z,79.43
2024-02-02T21:45:18.605Z,79.31
2024-02-02T21:47:49.361Z,78.70
2024-02-02T21:50:20.522Z,78.12
2024-02-02T21:52:52.876Z,76.61
2024-02-02T21:55:23.326Z,75.18
2024-02-02T21:57:53.915Z,74.70
2024-02-02T22:00:24.972Z,75.22
2024-02-02T22:02:55.480Z,75.09
2024-02-02T22:05:26.950Z,74.89
2024-02-02T22:07:59.112Z,74.39
2024-02-02T22:10:29.567Z,73.52
2024-02-02T22:13:00.145Z,72.67
2024-02-02T22:15:30.713Z,73.11
2024-02-02T22:18:01.277Z,73.49
2024-02-02T22:20:31.824Z,73.12
2024-02-02T22:23:04.005Z,73.25
2024-02-02T22:25:34.420Z,73.83
2024-02-02T22:28:07.253Z,75.17
2024-02-02T22:30:38.140Z,74.80
2024-02-02T22:33:09.022Z,73.63
2024-02-02T22:35:39.474Z,72.50
2024-02-02T22:38:11.651Z,72.05
2024-02-02T22:40:42.070Z,71.88
2024-02-02T22:43:12.588Z,71.94
2024-02-02T22:45:43.528Z,71.50
2024-02-02T22:48:14.180Z,72.69
2024-02-02T22:50:44.639Z,73.55
2024-02-02T22:53:16.764Z,73.81
2024-02-02T22:55:47.213Z,74.57
2024-02-02T22:58:17.929Z,75.78
2024-02-02T23:00:49.874Z,76.71
2024-02-02T23:03:20.468Z,77.26
2024-02-02T23:05:51.488Z,77.62
2024-02-02T23:08:23.666Z,77.56
2024-02-02T23:10:54.284Z,78.06
2024-02-02T23:13:25.153Z,78.52
2024-02-02T23:15:57.774Z,76.80
2024-02-02T23:18:28.449Z,74.57
2024-02-02T23:21:05.795Z,74.47
2024-02-02T23:23:38.509Z,74.54
2024-02-02T23:26:09.280Z,75.07
2024-02-02T23:28:40.969Z,75.04
2024-02-02T23:31:11.449Z,74.41
2024-02-02T23:33:43.691Z,73.64
2024-02-02T23:36:14.867Z,72.66
2024-02-02T23:38:47.255Z,73.49
2024-02-02T23:41:19.080Z,75.47
2024-02-02T23:43:49.567Z,74.56
2024-02-02T23:46:20.142Z,74.56
2024-02-02T23:48:51.468Z,75.36
2024-02-02T23:51:22.033Z,76.18
2024-02-02T23:53:54.158Z,76.44
2024-02-02T23:56:24.813Z,75.21
2024-02-02T23:58:55.336Z,74.29
